sensor_id;sensor_type;location;lat;lon;timestamp;pressure;altitude;pressure_sealevel;temperature;humidity
18167;BME280;9208;42.688;23.404;2023-04-27T00:00:21;95225.75;;;10.95;78.98
18167;BME280;9208;42.688;23.404;2023-04-27T00:02:46;95231.16;;;10.90;78.99
18167;BME280;9208;42.688;23.404;2023-04-27T00:05:12;95226.94;;;10.89;79.29
18167;BME280;9208;42.688;23.404;2023-04-27T00:07:38;95226.44;;;10.90;79.28
18167;BME280;9208;42.688;23.404;2023-04-27T00:10:03;95242.91;;;10.90;79.32
18167;BME280;9208;42.688;23.404;2023-04-27T00:12:29;95241.34;;;10.84;79.14
18167;BME280;9208;42.688;23.404;2023-04-27T00:14:54;95238.09;;;10.85;78.76
18167;BME280;9208;42.688;23.404;2023-04-27T00:17:20;95246.59;;;10.87;78.66
18167;BME280;9208;42.688;23.404;2023-04-27T00:19:46;95243.09;;;10.87;78.66
18167;BME280;9208;42.688;23.404;2023-04-27T00:22:11;95250.84;;;10.88;78.27
18167;BME280;9208;42.688;23.404;2023-04-27T00:24:38;95250.63;;;10.92;78.37
18167;BME280;9208;42.688;23.404;2023-04-27T00:27:03;95244.81;;;10.84;78.84
18167;BME280;9208;42.688;23.404;2023-04-27T00:29:29;95257.81;;;10.89;78.40
18167;BME280;9208;42.688;23.404;2023-04-27T00:31:55;95253.81;;;10.85;78.28
18167;BME280;9208;42.688;23.404;2023-04-27T00:34:20;95252.78;;;10.82;78.88
18167;BME280;9208;42.688;23.404;2023-04-27T00:36:46;95255.00;;;10.78;78.55
18167;BME280;9208;42.688;23.404;2023-04-27T00:39:12;95249.22;;;10.76;78.43
18167;BME280;9208;42.688;23.404;2023-04-27T00:41:38;95252.88;;;10.68;78.96
18167;BME280;9208;42.688;23.404;2023-04-27T00:44:04;95242.88;;;10.65;78.49
18167;BME280;9208;42.688;23.404;2023-04-27T00:46:29;95248.09;;;10.63;78.76
18167;BME280;9208;42.688;23.404;2023-04-27T00:48:55;95250.72;;;10.52;79.63
18167;BME280;9208;42.688;23.404;2023-04-27T00:51:21;95250.44;;;10.50;79.19
18167;BME280;9208;42.688;23.404;2023-04-27T00:53:52;95240.72;;;10.49;79.76
18167;BME280;9208;42.688;23.404;2023-04-27T00:56:18;95243.16;;;10.47;79.72
18167;BME280;9208;42.688;23.404;2023-04-27T00:58:44;95240.16;;;10.45;79.91
18167;BME280;9208;42.688;23.404;2023-04-27T01:01:10;95234.84;;;10.36;79.93
18167;BME280;9208;42.688;23.404;2023-04-27T01:03:36;95241.81;;;10.37;80.07
18167;BME280;9208;42.688;23.404;2023-04-27T01:06:04;95245.72;;;10.30;79.78
18167;BME280;9208;42.688;23.404;2023-04-27T01:08:30;95236.69;;;10.24;80.66
18167;BME280;9208;42.688;23.404;2023-04-27T01:10:56;95234.44;;;10.23;80.65
18167;BME280;9208;42.688;23.404;2023-04-27T01:13:22;95241.22;;;10.27;80.40
18167;BME280;9208;42.688;23.404;2023-04-27T01:15:47;95237.06;;;10.12;80.80
18167;BME280;9208;42.688;23.404;2023-04-27T01:18:13;95229.78;;;10.08;81.08
18167;BME280;9208;42.688;23.404;2023-04-27T01:20:39;95227.25;;;10.05;81.03
18167;BME280;9208;42.688;23.404;2023-04-27T01:23:06;95222.91;;;9.98;81.44
18167;BME280;9208;42.688;23.404;2023-04-27T01:25:32;95229.06;;;9.93;81.57
18167;BME280;9208;42.688;23.404;2023-04-27T01:27:58;95222.44;;;10.00;81.54
18167;BME280;9208;42.688;23.404;2023-04-27T01:30:23;95237.34;;;9.99;81.66
18167;BME280;9208;42.688;23.404;2023-04-27T01:32:49;95234.13;;;10.00;81.55
18167;BME280;9208;42.688;23.404;2023-04-27T01:35:15;95240.28;;;9.95;81.18
18167;BME280;9208;42.688;23.404;2023-04-27T01:37:40;95240.50;;;9.92;81.70
18167;BME280;9208;42.688;23.404;2023-04-27T01:40:07;95246.16;;;9.88;81.32
18167;BME280;9208;42.688;23.404;2023-04-27T01:42:33;95241.38;;;9.83;81.95
18167;BME280;9208;42.688;23.404;2023-04-27T01:44:58;95246.28;;;9.79;81.50
18167;BME280;9208;42.688;23.404;2023-04-27T01:47:25;95248.50;;;9.75;82.01
18167;BME280;9208;42.688;23.404;2023-04-27T01:49:51;95240.00;;;9.73;81.50
18167;BME280;9208;42.688;23.404;2023-04-27T01:52:16;95246.22;;;9.74;81.26
18167;BME280;9208;42.688;23.404;2023-04-27T01:54:42;95252.16;;;9.72;81.50
18167;BME280;9208;42.688;23.404;2023-04-27T01:57:08;95246.97;;;9.74;81.58
18167;BME280;9208;42.688;23.404;2023-04-27T01:59:33;95251.06;;;9.64;81.54
18167;BME280;9208;42.688;23.404;2023-04-27T02:01:59;95256.16;;;9.71;81.27
18167;BME280;9208;42.688;23.404;2023-04-27T02:04:24;95258.88;;;9.71;81.04
18167;BME280;9208;42.688;23.404;2023-04-27T02:06:50;95246.13;;;9.68;81.78
18167;BME280;9208;42.688;23.404;2023-04-27T02:09:15;95246.34;;;9.65;81.43
18167;BME280;9208;42.688;23.404;2023-04-27T02:11:40;95245.59;;;9.64;81.40
18167;BME280;9208;42.688;23.404;2023-04-27T02:14:06;95244.56;;;9.62;81.18
18167;BME280;9208;42.688;23.404;2023-04-27T02:16:31;95245.50;;;9.59;81.39
18167;BME280;9208;42.688;23.404;2023-04-27T02:18:57;95250.50;;;9.60;81.37
18167;BME280;9208;42.688;23.404;2023-04-27T02:21:23;95247.41;;;9.53;81.61
18167;BME280;9208;42.688;23.404;2023-04-27T02:23:48;95252.13;;;9.52;81.35
18167;BME280;9208;42.688;23.404;2023-04-27T02:26:17;95247.31;;;9.47;81.64
18167;BME280;9208;42.688;23.404;2023-04-27T02:28:44;95244.88;;;9.49;81.65
18167;BME280;9208;42.688;23.404;2023-04-27T02:31:10;95251.03;;;9.44;82.02
18167;BME280;9208;42.688;23.404;2023-04-27T02:33:36;95245.72;;;9.41;82.26
18167;BME280;9208;42.688;23.404;2023-04-27T02:36:01;95248.28;;;9.44;82.10
18167;BME280;9208;42.688;23.404;2023-04-27T02:38:28;95249.59;;;9.49;81.74
18167;BME280;9208;42.688;23.404;2023-04-27T02:40:54;95254.91;;;9.38;82.05
18167;BME280;9208;42.688;23.404;2023-04-27T02:43:20;95255.16;;;9.40;81.59
18167;BME280;9208;42.688;23.404;2023-04-27T02:45:45;95255.47;;;9.42;81.32
18167;BME280;9208;42.688;23.404;2023-04-27T02:48:10;95256.41;;;9.39;81.53
18167;BME280;9208;42.688;23.404;2023-04-27T02:50:40;95263.00;;;9.32;81.49
18167;BME280;9208;42.688;23.404;2023-04-27T02:53:06;95270.75;;;9.34;81.12
18167;BME280;9208;42.688;23.404;2023-04-27T02:55:31;95267.25;;;9.33;81.59
18167;BME280;9208;42.688;23.404;2023-04-27T02:57:57;95263.22;;;9.29;81.58
18167;BME280;9208;42.688;23.404;2023-04-27T03:00:22;95261.41;;;9.26;81.72
18167;BME280;9208;42.688;23.404;2023-04-27T03:02:48;95271.31;;;9.23;81.24
18167;BME280;9208;42.688;23.404;2023-04-27T03:05:13;95276.41;;;9.30;81.24
18167;BME280;9208;42.688;23.404;2023-04-27T03:07:38;95262.09;;;9.21;82.00
18167;BME280;9208;42.688;23.404;2023-04-27T03:10:04;95277.56;;;9.24;81.72
18167;BME280;9208;42.688;23.404;2023-04-27T03:12:30;95277.81;;;9.26;81.67
18167;BME280;9208;42.688;23.404;2023-04-27T03:14:55;95276.59;;;9.27;81.72
18167;BME280;9208;42.688;23.404;2023-04-27T03:17:20;95276.53;;;9.21;81.06
18167;BME280;9208;42.688;23.404;2023-04-27T03:19:47;95279.63;;;9.14;81.53
18167;BME280;9208;42.688;23.404;2023-04-27T03:22:15;95283.59;;;9.13;81.47
18167;BME280;9208;42.688;23.404;2023-04-27T03:24:43;95281.44;;;9.17;81.50
18167;BME280;9208;42.688;23.404;2023-04-27T03:27:09;95285.94;;;9.06;81.47
18167;BME280;9208;42.688;23.404;2023-04-27T03:29:34;95279.81;;;9.11;82.21
18167;BME280;9208;42.688;23.404;2023-04-27T03:32:00;95287.34;;;9.01;81.92
18167;BME280;9208;42.688;23.404;2023-04-27T03:34:26;95284.25;;;8.94;82.23
18167;BME280;9208;42.688;23.404;2023-04-27T03:36:51;95294.97;;;8.97;82.26
18167;BME280;9208;42.688;23.404;2023-04-27T03:39:16;95287.34;;;9.01;82.45
18167;BME280;9208;42.688;23.404;2023-04-27T03:41:42;95291.88;;;9.04;82.25
18167;BME280;9208;42.688;23.404;2023-04-27T03:44:07;95292.09;;;9.01;82.24
18167;BME280;9208;42.688;23.404;2023-04-27T03:46:33;95294.97;;;8.97;82.55
18167;BME280;9208;42.688;23.404;2023-04-27T03:48:58;95296.22;;;8.96;82.34
18167;BME280;9208;42.688;23.404;2023-04-27T03:51:27;95297.16;;;8.93;82.72
18167;BME280;9208;42.688;23.404;2023-04-27T03:53:52;95292.44;;;8.94;82.43
18167;BME280;9208;42.688;23.404;2023-04-27T03:56:17;95301.97;;;8.98;82.46
18167;BME280;9208;42.688;23.404;2023-04-27T03:58:43;95305.91;;;8.97;82.56
18167;BME280;9208;42.688;23.404;2023-04-27T04:01:08;95308.28;;;8.90;82.31
18167;BME280;9208;42.688;23.404;2023-04-27T04:03:35;95309.31;;;8.92;82.34
18167;BME280;9208;42.688;23.404;2023-04-27T04:06:00;95322.06;;;8.95;82.59
18167;BME280;9208;42.688;23.404;2023-04-27T04:08:28;95314.50;;;8.90;82.84
18167;BME280;9208;42.688;23.404;2023-04-27T04:10:55;95323.75;;;8.93;82.45
18167;BME280;9208;42.688;23.404;2023-04-27T04:13:20;95328.44;;;8.92;82.23
18167;BME280;9208;42.688;23.404;2023-04-27T04:15:46;95330.84;;;8.99;82.21
18167;BME280;9208;42.688;23.404;2023-04-27T04:18:11;95331.50;;;8.94;82.15
18167;BME280;9208;42.688;23.404;2023-04-27T04:20:37;95339.56;;;8.89;82.63
18167;BME280;9208;42.688;23.404;2023-04-27T04:23:02;95342.31;;;8.89;82.49
18167;BME280;9208;42.688;23.404;2023-04-27T04:25:27;95343.94;;;8.95;82.19
18167;BME280;9208;42.688;23.404;2023-04-27T04:27:53;95356.94;;;9.00;81.63
18167;BME280;9208;42.688;23.404;2023-04-27T04:30:19;95351.66;;;8.97;81.81
18167;BME280;9208;42.688;23.404;2023-04-27T04:32:44;95357.72;;;9.01;81.79
18167;BME280;9208;42.688;23.404;2023-04-27T04:35:10;95352.59;;;8.94;81.93
18167;BME280;9208;42.688;23.404;2023-04-27T04:37:36;95358.81;;;8.94;81.54
18167;BME280;9208;42.688;23.404;2023-04-27T04:40:06;95360.59;;;8.97;81.56
18167;BME280;9208;42.688;23.404;2023-04-27T04:42:37;95364.84;;;8.98;81.74
18167;BME280;9208;42.688;23.404;2023-04-27T04:45:03;95356.72;;;8.89;82.51
18167;BME280;9208;42.688;23.404;2023-04-27T04:47:29;95354.28;;;8.91;82.46
18167;BME280;9208;42.688;23.404;2023-04-27T04:49:58;95361.44;;;8.89;82.29
18167;BME280;9208;42.688;23.404;2023-04-27T04:52:24;95359.44;;;8.89;82.25
18167;BME280;9208;42.688;23.404;2023-04-27T04:54:52;95367.31;;;8.96;82.19
18167;BME280;9208;42.688;23.404;2023-04-27T04:57:18;95379.16;;;8.93;81.76
18167;BME280;9208;42.688;23.404;2023-04-27T04:59:43;95382.47;;;8.97;81.76
18167;BME280;9208;42.688;23.404;2023-04-27T05:02:09;95384.16;;;8.95;81.93
18167;BME280;9208;42.688;23.404;2023-04-27T05:04:34;95388.72;;;8.98;81.70
18167;BME280;9208;42.688;23.404;2023-04-27T05:07:00;95392.75;;;9.02;81.62
18167;BME280;9208;42.688;23.404;2023-04-27T05:09:25;95393.91;;;9.10;81.28
18167;BME280;9208;42.688;23.404;2023-04-27T05:11:50;95402.13;;;9.10;81.02
18167;BME280;9208;42.688;23.404;2023-04-27T05:14:16;95409.97;;;9.17;80.66
18167;BME280;9208;42.688;23.404;2023-04-27T05:16:41;95414.47;;;9.20;81.39
18167;BME280;9208;42.688;23.404;2023-04-27T05:19:07;95412.03;;;9.22;80.79
18167;BME280;9208;42.688;23.404;2023-04-27T05:21:33;95413.19;;;9.30;80.37
18167;BME280;9208;42.688;23.404;2023-04-27T05:23:58;95420.16;;;9.31;80.15
18167;BME280;9208;42.688;23.404;2023-04-27T05:26:24;95426.03;;;9.39;80.17
18167;BME280;9208;42.688;23.404;2023-04-27T05:28:49;95425.56;;;9.40;80.30
18167;BME280;9208;42.688;23.404;2023-04-27T05:31:15;95423.41;;;9.44;80.16
18167;BME280;9208;42.688;23.404;2023-04-27T05:33:40;95422.06;;;9.54;80.42
18167;BME280;9208;42.688;23.404;2023-04-27T05:36:06;95436.22;;;9.53;79.94
18167;BME280;9208;42.688;23.404;2023-04-27T05:38:31;95432.25;;;9.54;80.33
18167;BME280;9208;42.688;23.404;2023-04-27T05:40:59;95428.97;;;9.64;79.85
18167;BME280;9208;42.688;23.404;2023-04-27T05:43:25;95438.69;;;9.65;79.38
18167;BME280;9208;42.688;23.404;2023-04-27T05:45:51;95427.00;;;9.65;79.55
18167;BME280;9208;42.688;23.404;2023-04-27T05:48:17;95446.41;;;9.67;79.11
18167;BME280;9208;42.688;23.404;2023-04-27T05:50:43;95454.84;;;9.78;78.38
18167;BME280;9208;42.688;23.404;2023-04-27T05:53:08;95454.91;;;9.83;78.43
18167;BME280;9208;42.688;23.404;2023-04-27T05:55:34;95456.16;;;9.82;78.29
18167;BME280;9208;42.688;23.404;2023-04-27T05:58:00;95455.41;;;9.82;77.96
18167;BME280;9208;42.688;23.404;2023-04-27T06:00:26;95460.78;;;9.91;78.33
18167;BME280;9208;42.688;23.404;2023-04-27T06:02:52;95459.66;;;9.83;79.13
18167;BME280;9208;42.688;23.404;2023-04-27T06:05:18;95449.75;;;9.85;78.73
18167;BME280;9208;42.688;23.404;2023-04-27T06:07:44;95446.53;;;9.72;79.30
18167;BME280;9208;42.688;23.404;2023-04-27T06:10:10;95459.09;;;9.93;77.77
18167;BME280;9208;42.688;23.404;2023-04-27T06:12:36;95458.59;;;9.95;78.75
18167;BME280;9208;42.688;23.404;2023-04-27T06:15:02;95462.03;;;10.04;78.21
18167;BME280;9208;42.688;23.404;2023-04-27T06:17:32;95455.13;;;10.09;78.53
18167;BME280;9208;42.688;23.404;2023-04-27T06:19:58;95457.38;;;10.10;78.13
18167;BME280;9208;42.688;23.404;2023-04-27T06:22:23;95457.56;;;10.22;78.81
18167;BME280;9208;42.688;23.404;2023-04-27T06:24:49;95463.69;;;10.31;77.68
18167;BME280;9208;42.688;23.404;2023-04-27T06:27:14;95472.19;;;10.33;77.82
18167;BME280;9208;42.688;23.404;2023-04-27T06:29:40;95470.84;;;10.43;77.34
18167;BME280;9208;42.688;23.404;2023-04-27T06:32:05;95468.66;;;10.47;77.52
18167;BME280;9208;42.688;23.404;2023-04-27T06:34:32;95472.44;;;10.50;77.36
18167;BME280;9208;42.688;23.404;2023-04-27T06:36:58;95477.53;;;10.57;76.71
18167;BME280;9208;42.688;23.404;2023-04-27T06:39:23;95474.38;;;10.64;76.38
18167;BME280;9208;42.688;23.404;2023-04-27T06:41:48;95473.72;;;10.69;76.70
18167;BME280;9208;42.688;23.404;2023-04-27T06:44:14;95475.03;;;10.73;76.47
18167;BME280;9208;42.688;23.404;2023-04-27T06:46:39;95468.03;;;10.72;76.52
18167;BME280;9208;42.688;23.404;2023-04-27T06:49:05;95484.38;;;10.81;75.79
18167;BME280;9208;42.688;23.404;2023-04-27T06:51:31;95468.38;;;10.80;76.46
18167;BME280;9208;42.688;23.404;2023-04-27T06:53:56;95471.00;;;10.89;76.61
18167;BME280;9208;42.688;23.404;2023-04-27T06:56:25;95474.78;;;10.91;76.63
18167;BME280;9208;42.688;23.404;2023-04-27T06:58:50;95477.09;;;10.98;75.66
18167;BME280;9208;42.688;23.404;2023-04-27T07:01:15;95482.25;;;10.91;75.59
18167;BME280;9208;42.688;23.404;2023-04-27T07:03:41;95487.38;;;11.03;74.94
18167;BME280;9208;42.688;23.404;2023-04-27T07:06:06;95491.78;;;11.15;74.53
18167;BME280;9208;42.688;23.404;2023-04-27T07:08:32;95502.16;;;11.26;73.71
18167;BME280;9208;42.688;23.404;2023-04-27T07:10:57;95507.50;;;11.35;73.29
18167;BME280;9208;42.688;23.404;2023-04-27T07:13:23;95519.75;;;11.39;72.22
18167;BME280;9208;42.688;23.404;2023-04-27T07:15:54;95518.97;;;11.53;72.12
18167;BME280;9208;42.688;23.404;2023-04-27T07:18:21;95515.72;;;11.55;71.96
18167;BME280;9208;42.688;23.404;2023-04-27T07:20:47;95511.88;;;11.67;72.84
18167;BME280;9208;42.688;23.404;2023-04-27T07:23:12;95524.72;;;11.75;71.92
18167;BME280;9208;42.688;23.404;2023-04-27T07:25:37;95527.13;;;11.68;70.72
18167;BME280;9208;42.688;23.404;2023-04-27T07:28:04;95527.63;;;11.66;70.81
18167;BME280;9208;42.688;23.404;2023-04-27T07:30:29;95530.00;;;11.79;70.55
18167;BME280;9208;42.688;23.404;2023-04-27T07:32:55;95535.34;;;11.88;70.20
18167;BME280;9208;42.688;23.404;2023-04-27T07:35:21;95538.19;;;11.99;70.09
18167;BME280;9208;42.688;23.404;2023-04-27T07:37:49;95526.78;;;12.06;69.82
18167;BME280;9208;42.688;23.404;2023-04-27T07:40:16;95530.66;;;12.19;70.64
18167;BME280;9208;42.688;23.404;2023-04-27T07:42:42;95534.63;;;12.18;70.01
18167;BME280;9208;42.688;23.404;2023-04-27T07:45:10;95546.00;;;12.31;68.96
18167;BME280;9208;42.688;23.404;2023-04-27T07:47:36;95545.78;;;12.35;68.50
18167;BME280;9208;42.688;23.404;2023-04-27T07:50:03;95548.34;;;12.44;68.53
18167;BME280;9208;42.688;23.404;2023-04-27T07:52:30;95553.84;;;12.44;68.73
18167;BME280;9208;42.688;23.404;2023-04-27T07:54:56;95560.66;;;12.48;67.08
18167;BME280;9208;42.688;23.404;2023-04-27T07:57:21;95579.25;;;12.59;66.65
18167;BME280;9208;42.688;23.404;2023-04-27T07:59:47;95578.06;;;12.65;65.81
18167;BME280;9208;42.688;23.404;2023-04-27T08:02:12;95581.91;;;12.79;65.40
18167;BME280;9208;42.688;23.404;2023-04-27T08:04:37;95589.72;;;12.86;64.47
18167;BME280;9208;42.688;23.404;2023-04-27T08:07:03;95571.72;;;12.90;64.48
18167;BME280;9208;42.688;23.404;2023-04-27T08:09:28;95581.13;;;13.04;65.11
18167;BME280;9208;42.688;23.404;2023-04-27T08:11:54;95573.91;;;13.12;65.50
18167;BME280;9208;42.688;23.404;2023-04-27T08:14:19;95589.75;;;13.22;64.46
18167;BME280;9208;42.688;23.404;2023-04-27T08:16:45;95589.97;;;13.19;64.94
18167;BME280;9208;42.688;23.404;2023-04-27T08:19:11;95587.47;;;13.15;64.80
18167;BME280;9208;42.688;23.404;2023-04-27T08:21:37;95586.25;;;13.22;64.05
18167;BME280;9208;42.688;23.404;2023-04-27T08:24:03;95586.25;;;13.27;63.90
18167;BME280;9208;42.688;23.404;2023-04-27T08:26:29;95599.59;;;13.34;63.82
18167;BME280;9208;42.688;23.404;2023-04-27T08:28:54;95586.53;;;13.29;63.87
18167;BME280;9208;42.688;23.404;2023-04-27T08:31:24;95587.03;;;13.28;63.42
18167;BME280;9208;42.688;23.404;2023-04-27T08:33:51;95597.25;;;13.22;63.86
18167;BME280;9208;42.688;23.404;2023-04-27T08:36:18;95581.91;;;13.10;63.93
18167;BME280;9208;42.688;23.404;2023-04-27T08:38:43;95579.97;;;13.21;63.72
18167;BME280;9208;42.688;23.404;2023-04-27T08:41:09;95581.28;;;13.26;64.00
18167;BME280;9208;42.688;23.404;2023-04-27T08:43:34;95583.31;;;13.31;63.83
18167;BME280;9208;42.688;23.404;2023-04-27T08:46:01;95578.56;;;13.37;63.46
18167;BME280;9208;42.688;23.404;2023-04-27T08:48:27;95594.84;;;13.40;63.67
18167;BME280;9208;42.688;23.404;2023-04-27T08:50:55;95580.63;;;13.47;63.90
18167;BME280;9208;42.688;23.404;2023-04-27T08:53:21;95582.13;;;13.48;63.46
18167;BME280;9208;42.688;23.404;2023-04-27T08:55:49;95592.19;;;13.57;62.69
18167;BME280;9208;42.688;23.404;2023-04-27T08:58:14;95596.94;;;13.56;62.62
18167;BME280;9208;42.688;23.404;2023-04-27T09:00:43;95595.19;;;13.53;63.07
18167;BME280;9208;42.688;23.404;2023-04-27T09:03:23;95587.19;;;13.55;63.56
18167;BME280;9208;42.688;23.404;2023-04-27T09:05:49;95586.41;;;13.55;62.82
18167;BME280;9208;42.688;23.404;2023-04-27T09:08:15;95587.69;;;13.59;63.10
18167;BME280;9208;42.688;23.404;2023-04-27T09:10:47;95579.22;;;13.63;63.03
18167;BME280;9208;42.688;23.404;2023-04-27T09:13:13;95585.47;;;13.69;62.97
18167;BME280;9208;42.688;23.404;2023-04-27T09:15:45;95583.22;;;13.67;62.96
18167;BME280;9208;42.688;23.404;2023-04-27T09:18:29;95579.97;;;13.69;63.26
18167;BME280;9208;42.688;23.404;2023-04-27T09:20:59;95577.97;;;13.75;62.56
18167;BME280;9208;42.688;23.404;2023-04-27T09:23:36;95576.25;;;13.77;62.70
18167;BME280;9208;42.688;23.404;2023-04-27T09:26:05;95584.81;;;13.85;62.23
18167;BME280;9208;42.688;23.404;2023-04-27T09:28:37;95587.59;;;13.96;61.81
18167;BME280;9208;42.688;23.404;2023-04-27T09:31:03;95584.38;;;14.03;61.18
18167;BME280;9208;42.688;23.404;2023-04-27T09:33:31;95601.91;;;14.11;59.94
18167;BME280;9208;42.688;23.404;2023-04-27T09:35:58;95596.41;;;14.05;61.15
18167;BME280;9208;42.688;23.404;2023-04-27T09:38:24;95585.13;;;14.09;61.72
18167;BME280;9208;42.688;23.404;2023-04-27T09:40:51;95578.13;;;14.08;61.52
18167;BME280;9208;42.688;23.404;2023-04-27T09:43:17;95582.16;;;14.18;60.58
18167;BME280;9208;42.688;23.404;2023-04-27T09:45:43;95567.66;;;14.23;61.08
18167;BME280;9208;42.688;23.404;2023-04-27T09:48:10;95576.44;;;14.32;60.40
18167;BME280;9208;42.688;23.404;2023-04-27T09:50:40;95576.19;;;14.36;60.25
18167;BME280;9208;42.688;23.404;2023-04-27T09:53:14;95572.41;;;14.28;60.01
18167;BME280;9208;42.688;23.404;2023-04-27T10:01:38;95581.31;;;13.95;59.82
18167;BME280;9208;42.688;23.404;2023-04-27T10:06:54;95573.81;;;13.96;59.84
18167;BME280;9208;42.688;23.404;2023-04-27T10:09:22;95562.19;;;13.70;60.55
18167;BME280;9208;42.688;23.404;2023-04-27T10:11:48;95554.19;;;13.72;61.30
18167;BME280;9208;42.688;23.404;2023-04-27T10:14:20;95547.88;;;13.55;62.21
18167;BME280;9208;42.688;23.404;2023-04-27T10:16:53;95553.38;;;13.55;61.17
18167;BME280;9208;42.688;23.404;2023-04-27T10:19:20;95571.91;;;13.60;60.26
18167;BME280;9208;42.688;23.404;2023-04-27T10:21:56;95557.16;;;13.63;60.65
18167;BME280;9208;42.688;23.404;2023-04-27T10:24:40;95565.69;;;13.65;61.88
18167;BME280;9208;42.688;23.404;2023-04-27T10:27:08;95553.19;;;13.69;61.40
18167;BME280;9208;42.688;23.404;2023-04-27T10:29:40;95559.91;;;13.63;61.23
18167;BME280;9208;42.688;23.404;2023-04-27T10:32:26;95552.66;;;13.65;61.14
18167;BME280;9208;42.688;23.404;2023-04-27T10:35:07;95555.44;;;13.65;60.70
18167;BME280;9208;42.688;23.404;2023-04-27T10:37:41;95551.66;;;13.63;61.52
18167;BME280;9208;42.688;23.404;2023-04-27T10:40:08;95553.41;;;13.60;60.73
18167;BME280;9208;42.688;23.404;2023-04-27T10:42:35;95552.44;;;13.69;60.83
18167;BME280;9208;42.688;23.404;2023-04-27T10:45:01;95552.94;;;13.73;59.99
18167;BME280;9208;42.688;23.404;2023-04-27T10:50:03;95555.22;;;13.85;59.69
18167;BME280;9208;42.688;23.404;2023-04-27T10:52:29;95554.50;;;13.85;59.40
18167;BME280;9208;42.688;23.404;2023-04-27T10:54:54;95555.25;;;13.91;59.63
18167;BME280;9208;42.688;23.404;2023-04-27T10:57:20;95565.28;;;13.88;58.81
18167;BME280;9208;42.688;23.404;2023-04-27T10:59:53;95574.78;;;13.82;58.48
18167;BME280;9208;42.688;23.404;2023-04-27T11:02:27;95577.06;;;13.89;57.64
18167;BME280;9208;42.688;23.404;2023-04-27T11:04:53;95584.84;;;13.96;57.70
18167;BME280;9208;42.688;23.404;2023-04-27T11:07:26;95584.38;;;14.03;57.26
18167;BME280;9208;42.688;23.404;2023-04-27T11:09:54;95583.88;;;14.10;56.91
18167;BME280;9208;42.688;23.404;2023-04-27T11:12:20;95576.59;;;14.12;57.55
18167;BME280;9208;42.688;23.404;2023-04-27T11:14:45;95572.63;;;14.19;57.76
18167;BME280;9208;42.688;23.404;2023-04-27T11:17:12;95581.38;;;14.12;56.44
18167;BME280;9208;42.688;23.404;2023-04-27T11:19:47;95573.56;;;13.94;57.60
18167;BME280;9208;42.688;23.404;2023-04-27T11:22:14;95568.78;;;13.94;57.52
18167;BME280;9208;42.688;23.404;2023-04-27T11:24:49;95584.59;;;13.94;57.59
18167;BME280;9208;42.688;23.404;2023-04-27T11:27:15;95587.88;;;13.98;57.84
18167;BME280;9208;42.688;23.404;2023-04-27T11:29:42;95583.09;;;13.98;57.41
18167;BME280;9208;42.688;23.404;2023-04-27T11:32:07;95583.38;;;14.00;56.89
18167;BME280;9208;42.688;23.404;2023-04-27T11:34:33;95594.16;;;14.15;56.79
18167;BME280;9208;42.688;23.404;2023-04-27T11:37:04;95603.91;;;14.05;55.78
18167;BME280;9208;42.688;23.404;2023-04-27T11:39:37;95596.13;;;13.98;56.14
18167;BME280;9208;42.688;23.404;2023-04-27T11:42:15;95600.16;;;14.08;56.34
18167;BME280;9208;42.688;23.404;2023-04-27T11:44:42;95589.47;;;14.21;57.07
18167;BME280;9208;42.688;23.404;2023-04-27T11:47:16;95594.22;;;14.26;56.87
18167;BME280;9208;42.688;23.404;2023-04-27T11:49:47;95589.22;;;14.30;56.78
18167;BME280;9208;42.688;23.404;2023-04-27T11:52:12;95589.25;;;14.41;56.55
18167;BME280;9208;42.688;23.404;2023-04-27T11:54:38;95602.78;;;14.39;55.75
18167;BME280;9208;42.688;23.404;2023-04-27T11:57:04;95602.75;;;14.28;56.20
18167;BME280;9208;42.688;23.404;2023-04-27T11:59:30;95602.22;;;14.18;56.36
18167;BME280;9208;42.688;23.404;2023-04-27T12:01:55;95595.44;;;14.19;57.32
18167;BME280;9208;42.688;23.404;2023-04-27T12:04:21;95593.72;;;14.22;56.83
18167;BME280;9208;42.688;23.404;2023-04-27T12:06:46;95597.94;;;14.17;56.82
18167;BME280;9208;42.688;23.404;2023-04-27T12:09:12;95596.44;;;14.16;57.00
18167;BME280;9208;42.688;23.404;2023-04-27T12:11:37;95599.19;;;14.16;57.12
18167;BME280;9208;42.688;23.404;2023-04-27T12:14:03;95605.72;;;14.13;55.67
18167;BME280;9208;42.688;23.404;2023-04-27T12:16:28;95614.47;;;14.17;55.07
18167;BME280;9208;42.688;23.404;2023-04-27T12:18:54;95614.28;;;14.21;54.33
18167;BME280;9208;42.688;23.404;2023-04-27T12:21:19;95619.56;;;14.30;54.79
18167;BME280;9208;42.688;23.404;2023-04-27T12:23:45;95618.31;;;14.31;54.16
18167;BME280;9208;42.688;23.404;2023-04-27T12:26:11;95629.59;;;14.33;54.50
18167;BME280;9208;42.688;23.404;2023-04-27T12:28:37;95624.84;;;14.44;54.61
18167;BME280;9208;42.688;23.404;2023-04-27T12:31:03;95615.31;;;14.40;55.03
18167;BME280;9208;42.688;23.404;2023-04-27T12:33:29;95614.09;;;14.46;54.39
18167;BME280;9208;42.688;23.404;2023-04-27T12:35:54;95615.56;;;14.42;54.64
18167;BME280;9208;42.688;23.404;2023-04-27T12:38:20;95619.84;;;14.43;54.49
18167;BME280;9208;42.688;23.404;2023-04-27T12:40:47;95622.84;;;14.45;54.88
18167;BME280;9208;42.688;23.404;2023-04-27T12:43:12;95601.03;;;14.52;56.07
18167;BME280;9208;42.688;23.404;2023-04-27T12:45:38;95612.06;;;14.52;55.63
18167;BME280;9208;42.688;23.404;2023-04-27T12:48:04;95614.09;;;14.46;55.44
18167;BME280;9208;42.688;23.404;2023-04-27T12:50:32;95600.78;;;14.34;56.49
18167;BME280;9208;42.688;23.404;2023-04-27T12:52:58;95609.03;;;14.28;56.20
18167;BME280;9208;42.688;23.404;2023-04-27T12:55:24;95611.53;;;14.21;55.27
18167;BME280;9208;42.688;23.404;2023-04-27T12:57:51;95597.94;;;14.17;57.73
18167;BME280;9208;42.688;23.404;2023-04-27T13:00:18;95587.41;;;14.16;57.30
18167;BME280;9208;42.688;23.404;2023-04-27T13:02:44;95587.66;;;14.18;57.27
18167;BME280;9208;42.688;23.404;2023-04-27T13:05:10;95595.50;;;14.25;56.62
18167;BME280;9208;42.688;23.404;2023-04-27T13:07:36;95591.72;;;14.28;56.72
18167;BME280;9208;42.688;23.404;2023-04-27T13:10:02;95603.50;;;14.28;55.60
18167;BME280;9208;42.688;23.404;2023-04-27T13:12:28;95608.25;;;14.28;55.76